createdAt,value
2022-12-17T00:01:26.891Z,32.03
2022-12-17T00:04:11.981Z,28.35
2022-12-17T00:06:57.192Z,28.95
2022-12-17T00:09:45.756Z,26.30
2022-12-17T00:12:33.898Z,29.88
2022-12-17T00:15:20.337Z,26.52
2022-12-17T00:18:20.299Z,31.65
2022-12-17T00:21:10.689Z,27.15
2022-12-17T00:23:55.548Z,30.60
2022-12-17T00:26:41.893Z,25.70
2022-12-17T00:29:27.178Z,26.73
2022-12-17T00:32:13.826Z,27.10
2022-12-17T00:34:58.884Z,25.35
2022-12-17T00:37:44.149Z,25.00
2022-12-17T00:40:31.820Z,26.20
2022-12-17T00:43:20.720Z,30.85
2022-12-17T00:46:05.892Z,24.30
2022-12-17T00:48:52.938Z,25.77
2022-12-17T00:51:39.778Z,28.88
2022-12-17T00:54:25.287Z,27.58
2022-12-17T00:57:10.703Z,25.80
2022-12-17T00:59:56.020Z,27.77
2022-12-17T01:02:41.969Z,29.45
2022-12-17T01:05:29.405Z,29.40
2022-12-17T01:08:15.177Z,27.67
2022-12-17T01:11:00.843Z,26.85
2022-12-17T01:13:45.985Z,31.55
2022-12-17T01:16:32.679Z,29.45
2022-12-17T01:19:18.470Z,27.08
2022-12-17T01:22:05.116Z,29.50
2022-12-17T01:24:50.450Z,29.35
2022-12-17T01:27:35.887Z,30.40
2022-12-17T01:30:20.988Z,26.67
2022-12-17T01:33:06.266Z,33.88
2022-12-17T01:35:51.544Z,30.73
2022-12-17T01:38:38.361Z,33.00
2022-12-17T01:41:24.692Z,32.40
2022-12-17T01:44:09.669Z,33.40
2022-12-17T01:46:57.534Z,28.95
2022-12-17T01:49:45.319Z,28.70
2022-12-17T01:52:32.075Z,29.80
2022-12-17T01:55:24.136Z,25.65
2022-12-17T01:58:08.927Z,28.80
2022-12-17T02:00:54.529Z,29.40
2022-12-17T02:03:39.721Z,30.30
2022-12-17T02:06:34.836Z,31.50
2022-12-17T02:09:29.063Z,32.88
2022-12-17T02:12:28.333Z,31.42
2022-12-17T02:15:19.823Z,28.77
2022-12-17T02:18:08.305Z,27.90
2022-12-17T02:20:58.022Z,31.35
2022-12-17T02:23:53.872Z,29.45
2022-12-17T02:26:56.784Z,35.42
2022-12-17T02:29:45.273Z,34.20
2022-12-17T02:32:32.963Z,37.70
2022-12-17T02:35:29.064Z,37.72
2022-12-17T02:38:14.644Z,36.85
2022-12-17T02:41:00.855Z,36.60
2022-12-17T02:43:51.523Z,36.35
2022-12-17T02:46:38.371Z,38.83
2022-12-17T02:49:23.999Z,38.47
2022-12-17T02:52:21.415Z,34.47
2022-12-17T02:55:15.333Z,34.15
2022-12-17T02:58:00.845Z,34.05
2022-12-17T03:00:47.719Z,33.17
2022-12-17T03:03:32.876Z,35.67
2022-12-17T03:06:18.454Z,35.40
2022-12-17T03:09:03.747Z,32.90
2022-12-17T03:11:49.086Z,35.95
2022-12-17T03:14:34.249Z,38.05
2022-12-17T03:17:20.861Z,38.65
2022-12-17T03:20:06.191Z,39.55
2022-12-17T03:22:51.564Z,35.05
2022-12-17T03:25:36.957Z,35.67
2022-12-17T03:28:23.010Z,33.80
2022-12-17T03:31:08.425Z,39.42
2022-12-17T03:34:00.371Z,40.85
2022-12-17T03:36:45.656Z,37.30
2022-12-17T03:39:30.821Z,35.70
2022-12-17T03:42:16.219Z,35.85
2022-12-17T03:45:01.505Z,39.45
2022-12-17T03:47:49.272Z,39.05
2022-12-17T03:50:35.918Z,33.85
2022-12-17T03:53:23.097Z,35.25
2022-12-17T03:56:08.451Z,37.00
2022-12-17T03:58:53.713Z,34.42
2022-12-17T04:01:39.001Z,36.63
2022-12-17T04:04:24.119Z,37.10
2022-12-17T04:07:10.605Z,33.83
2022-12-17T04:09:56.067Z,36.55
2022-12-17T04:12:41.332Z,33.10
2022-12-17T04:15:27.085Z,35.45
2022-12-17T04:18:12.178Z,32.50
2022-12-17T04:20:57.372Z,36.55
2022-12-17T04:23:43.999Z,35.08
2022-12-17T04:26:29.182Z,35.75
2022-12-17T04:29:14.314Z,32.60
2022-12-17T04:31:59.765Z,31.35
2022-12-17T04:34:45.071Z,34.88
2022-12-17T04:37:38.802Z,30.95
2022-12-17T04:40:28.108Z,31.73
2022-12-17T04:43:13.471Z,30.58
2022-12-17T04:45:59.011Z,38.17
2022-12-17T04:48:44.284Z,37.30
2022-12-17T04:51:29.636Z,39.15
2022-12-17T04:54:14.918Z,35.78
2022-12-17T04:57:01.492Z,30.58
2022-12-17T04:59:46.769Z,35.92
2022-12-17T05:02:32.105Z,33.00
2022-12-17T05:05:17.213Z,30.00
2022-12-17T05:08:07.847Z,29.67
2022-12-17T05:10:53.165Z,30.27
2022-12-17T05:13:39.858Z,26.33
2022-12-17T05:16:25.081Z,28.07
2022-12-17T05:19:10.453Z,27.00
2022-12-17T05:21:55.692Z,29.15
2022-12-17T05:24:41.021Z,30.60
2022-12-17T05:27:26.259Z,29.30
2022-12-17T05:30:12.627Z,32.78
2022-12-17T05:32:57.906Z,31.48
2022-12-17T05:35:43.095Z,33.35
2022-12-17T05:38:29.325Z,31.13
2022-12-17T05:41:15.737Z,33.30
2022-12-17T05:44:00.903Z,33.27
2022-12-17T05:46:47.991Z,34.80
2022-12-17T05:49:33.498Z,39.13
2022-12-17T05:52:18.821Z,34.07
2022-12-17T05:55:04.283Z,31.97
2022-12-17T05:57:56.027Z,30.50
2022-12-17T06:00:41.470Z,29.20
2022-12-17T06:03:28.469Z,38.13
2022-12-17T06:06:14.777Z,35.53
2022-12-17T06:09:02.262Z,37.37
2022-12-17T06:11:47.581Z,34.27
2022-12-17T06:14:32.873Z,39.13
2022-12-17T06:17:18.076Z,32.80
2022-12-17T06:20:04.774Z,36.37
2022-12-17T06:22:50.188Z,41.00
2022-12-17T06:25:46.730Z,38.25
2022-12-17T06:28:31.604Z,37.47
2022-12-17T06:31:16.965Z,40.07
2022-12-17T06:34:02.291Z,37.60
2022-12-17T06:36:48.753Z,35.57
2022-12-17T06:39:34.136Z,39.30
2022-12-17T06:42:19.352Z,36.20
2022-12-17T06:45:04.654Z,38.90
2022-12-17T06:47:50.059Z,37.50
2022-12-17T06:50:35.398Z,33.17
2022-12-17T06:53:24.226Z,32.40
2022-12-17T06:56:09.516Z,35.78
2022-12-17T06:58:54.940Z,31.03
2022-12-17T07:01:40.572Z,32.87
2022-12-17T07:04:25.997Z,31.47
2022-12-17T07:07:11.539Z,37.13
2022-12-17T07:09:58.122Z,37.67
2022-12-17T07:12:43.503Z,39.20
2022-12-17T07:15:29.307Z,35.28
2022-12-17T07:18:15.065Z,30.33
2022-12-17T07:21:00.539Z,36.20
2022-12-17T07:23:45.817Z,28.97
2022-12-17T07:26:32.426Z,45.60
2022-12-17T07:29:23.239Z,32.47
2022-12-17T07:32:08.712Z,31.93
2022-12-17T07:34:53.832Z,32.53
2022-12-17T07:37:39.255Z,38.93
2022-12-17T07:40:25.479Z,36.93
2022-12-17T07:43:12.529Z,32.90
2022-12-17T07:45:58.182Z,36.97
2022-12-17T07:48:43.451Z,35.97
2022-12-17T07:51:28.806Z,35.00
2022-12-17T07:54:14.151Z,34.13
2022-12-17T07:56:59.271Z,31.17
2022-12-17T07:59:45.273Z,30.43
2022-12-17T08:02:30.617Z,31.33
2022-12-17T08:05:30.269Z,36.27
2022-12-17T08:08:15.018Z,34.92
2022-12-17T08:11:00.074Z,32.27
2022-12-17T08:13:45.351Z,33.13
2022-12-17T08:16:32.378Z,34.00
2022-12-17T08:19:17.840Z,34.97
2022-12-17T08:22:03.028Z,38.73
2022-12-17T08:24:48.280Z,41.70
2022-12-17T08:27:33.579Z,41.97
2022-12-17T08:30:18.880Z,36.70
2022-12-17T08:33:05.483Z,37.07
2022-12-17T08:35:55.980Z,34.33
2022-12-17T08:38:41.300Z,36.93
2022-12-17T08:41:26.361Z,32.27
2022-12-17T08:44:11.695Z,33.77
2022-12-17T08:46:57.325Z,32.27
2022-12-17T08:49:49.018Z,29.10
2022-12-17T08:52:34.165Z,36.30
2022-12-17T08:55:19.453Z,31.37
2022-12-17T08:58:11.254Z,36.00
2022-12-17T09:00:57.242Z,37.53
2022-12-17T09:03:42.960Z,43.13
2022-12-17T09:06:33.435Z,40.57
2022-12-17T09:09:22.818Z,37.37
2022-12-17T09:12:07.895Z,36.53
2022-12-17T09:14:53.205Z,37.70
2022-12-17T09:17:38.580Z,36.22
2022-12-17T09:20:29.117Z,35.50
2022-12-17T09:23:24.563Z,31.13
2022-12-17T09:26:12.242Z,30.93
2022-12-17T09:28:57.276Z,34.80
2022-12-17T09:31:42.802Z,35.83
2022-12-17T09:34:42.587Z,37.17
2022-12-17T09:37:27.863Z,29.93
2022-12-17T09:40:14.454Z,30.90
2022-12-17T09:43:08.662Z,41.63
2022-12-17T09:46:03.486Z,52.60
2022-12-17T09:48:55.076Z,54.30
2022-12-17T09:51:42.304Z,57.40
2022-12-17T09:54:38.408Z,51.28
2022-12-17T09:57:25.528Z,53.73
2022-12-17T10:00:10.914Z,57.10
2022-12-17T10:02:57.393Z,51.10
2022-12-17T10:05:51.025Z,53.57
2022-12-17T10:08:39.474Z,52.97
2022-12-17T10:11:34.535Z,49.72
2022-12-17T10:14:23.110Z,50.03
2022-12-17T10:17:12.204Z,44.17
2022-12-17T10:20:00.593Z,45.25
2022-12-17T10:22:45.962Z,46.40
2022-12-17T10:25:34.200Z,47.70
2022-12-17T10:28:20.943Z,43.90
2022-12-17T10:31:08.158Z,49.88
2022-12-17T10:33:56.811Z,50.00
2022-12-17T10:36:43.602Z,45.13
2022-12-17T10:39:35.440Z,49.10
2022-12-17T10:42:21.280Z,48.53
2022-12-17T10:45:07.788Z,55.10
2022-12-17T10:47:54.355Z,53.00
2022-12-17T10:50:41.637Z,48.95
2022-12-17T10:53:37.056Z,49.33
2022-12-17T10:56:29.659Z,46.40
2022-12-17T10:59:14.652Z,48.47
2022-12-17T11:02:01.091Z,50.65
2022-12-17T11:04:49.897Z,44.53
2022-12-17T11:07:41.739Z,49.53
2022-12-17T11:10:34.587Z,45.33
2022-12-17T11:13:23.941Z,48.47
2022-12-17T11:16:12.356Z,42.80
2022-12-17T11:19:03.412Z,44.47
2022-12-17T11:21:54.613Z,42.88
2022-12-17T11:24:42.990Z,48.33
2022-12-17T11:27:34.019Z,48.80
2022-12-17T11:30:19.256Z,45.28
2022-12-17T11:33:19.324Z,46.42
2022-12-17T11:36:12.203Z,47.05
2022-12-17T11:39:07.982Z,49.17
2022-12-17T11:42:11.234Z,44.83
2022-12-17T11:45:04.187Z,51.72
2022-12-17T11:47:59.555Z,50.55
2022-12-17T11:50:50.460Z,43.10
2022-12-17T11:53:55.560Z,42.03
2022-12-17T11:56:46.734Z,45.47
2022-12-17T11:59:40.938Z,45.03
2022-12-17T12:02:40.872Z,47.00
2022-12-17T12:05:37.744Z,44.78
2022-12-17T12:08:30.042Z,57.05
2022-12-17T12:11:29.765Z,51.83
2022-12-17T12:14:27.637Z,48.30
2022-12-17T12:17:21.659Z,37.00
2022-12-17T12:20:14.166Z,40.10
2022-12-17T12:23:12.547Z,38.45
2022-12-17T12:26:20.335Z,42.25
2022-12-17T12:29:12.186Z,32.53
2022-12-17T12:32:03.602Z,37.47
2022-12-17T12:34:52.964Z,40.15
2022-12-17T12:37:39.369Z,39.30
2022-12-17T12:40:35.376Z,41.30
2022-12-17T12:43:30.581Z,47.70
2022-12-17T12:46:21.383Z,42.17
2022-12-17T12:49:15.906Z,41.22
2022-12-17T12:52:01.712Z,42.67
2022-12-17T12:54:49.566Z,38.45
2022-12-17T12:57:49.753Z,41.28
2022-12-17T13:00:53.060Z,41.30
2022-12-17T13:03:44.703Z,37.35
2022-12-17T13:06:15.975Z,37.08
2022-12-17T13:08:43.547Z,40.85
2022-12-17T13:11:29.241Z,41.83
2022-12-17T13:14:07.320Z,36.08
2022-12-17T13:16:43.527Z,37.15
2022-12-17T13:19:21.316Z,41.28
2022-12-17T13:21:50.389Z,41.80
2022-12-17T13:24:28.228Z,39.13
2022-12-17T13:26:55.781Z,39.13
2022-12-17T13:29:29.602Z,38.35
2022-12-17T13:32:06.083Z,37.40
2022-12-17T13:34:44.992Z,37.55
2022-12-17T13:37:23.415Z,71.63
2022-12-17T13:39:59.969Z,50.90
2022-12-17T13:42:31.069Z,43.53
2022-12-17T13:44:59.978Z,37.20
2022-12-17T13:47:30.571Z,37.90
2022-12-17T13:50:32.817Z,38.05
2022-12-17T13:52:50.079Z,38.03
2022-12-17T13:55:21.061Z,35.97
2022-12-17T13:57:49.959Z,35.70
2022-12-17T14:00:24.120Z,37.40
2022-12-17T14:02:52.559Z,35.60
2022-12-17T14:05:26.943Z,37.08
2022-12-17T14:07:59.356Z,31.83
2022-12-17T14:10:27.152Z,39.33
2022-12-17T14:13:04.022Z,36.30
2022-12-17T14:15:31.992Z,52.55
2022-12-17T14:18:00.535Z,50.55
2022-12-17T14:20:31.786Z,39.67
2022-12-17T14:23:04.248Z,39.25
2022-12-17T14:25:36.329Z,35.88
2022-12-17T14:28:06.188Z,37.70
2022-12-17T14:30:46.172Z,35.45
2022-12-17T14:33:29.521Z,36.90
2022-12-17T14:35:58.652Z,36.25
2022-12-17T14:38:48.645Z,39.92
2022-12-17T14:41:34.089Z,40.50
2022-12-17T14:44:03.496Z,35.17
2022-12-17T14:46:32.921Z,40.28
2022-12-17T14:49:02.612Z,41.33
2022-12-17T14:51:33.398Z,36.83
2022-12-17T14:54:19.537Z,42.28
2022-12-17T14:56:49.233Z,42.35
2022-12-17T14:59:31.686Z,44.50
2022-12-17T15:02:02.797Z,41.05
2022-12-17T15:04:32.170Z,45.38
2022-12-17T15:07:00.334Z,42.13
2022-12-17T15:09:29.235Z,56.92
2022-12-17T15:11:57.240Z,43.67
2022-12-17T15:14:24.755Z,40.53
2022-12-17T15:16:52.718Z,52.35
2022-12-17T15:19:20.324Z,53.17
2022-12-17T15:21:47.877Z,44.50
2022-12-17T15:24:20.351Z,43.10
2022-12-17T15:26:49.910Z,37.50
2022-12-17T15:29:17.502Z,37.17
2022-12-17T15:31:45.127Z,36.00
2022-12-17T15:34:13.406Z,37.80
2022-12-17T15:36:40.942Z,39.60
2022-12-17T15:39:09.418Z,36.13
2022-12-17T15:41:54.912Z,35.65
2022-12-17T15:44:23.757Z,35.78
2022-12-17T15:46:51.398Z,36.17
2022-12-17T15:49:18.900Z,35.53
2022-12-17T15:51:46.419Z,33.88
2022-12-17T15:54:13.923Z,34.47
2022-12-17T15:56:41.431Z,39.35
2022-12-17T15:59:08.954Z,37.38
2022-12-17T16:01:38.056Z,35.67
2022-12-17T16:04:09.185Z,37.53
2022-12-17T16:06:41.420Z,38.08
2022-12-17T16:09:08.910Z,34.85
2022-12-17T16:11:36.506Z,38.25
2022-12-17T16:14:04.070Z,37.90
2022-12-17T16:16:31.770Z,40.90
2022-12-17T16:19:01.936Z,40.97
2022-12-17T16:21:29.964Z,38.17
2022-12-17T16:23:57.511Z,38.58
2022-12-17T16:26:27.269Z,41.13
2022-12-17T16:28:54.797Z,43.63
2022-12-17T16:31:22.336Z,37.28
2022-12-17T16:33:49.891Z,37.17
2022-12-17T16:36:21.384Z,40.90
2022-12-17T16:38:51.243Z,33.90
2022-12-17T16:41:19.848Z,37.47
2022-12-17T16:43:47.883Z,29.15
2022-12-17T16:46:27.206Z,34.28
2022-12-17T16:48:55.991Z,35.95
2022-12-17T16:51:29.272Z,34.05
2022-12-17T16:53:57.365Z,31.92
2022-12-17T16:56:27.232Z,32.20
2022-12-17T16:58:55.385Z,32.17
2022-12-17T17:01:25.018Z,33.17
2022-12-17T17:03:52.751Z,32.40
2022-12-17T17:06:22.066Z,35.92
2022-12-17T17:08:51.377Z,34.20
2022-12-17T17:11:21.426Z,34.20
2022-12-17T17:13:49.935Z,32.85
2022-12-17T17:16:19.945Z,31.52
2022-12-17T17:18:47.858Z,33.92
2022-12-17T17:21:26.295Z,36.20
2022-12-17T17:23:57.746Z,35.90
2022-12-17T17:26:25.506Z,35.00
2022-12-17T17:28:53.103Z,38.47
2022-12-17T17:31:21.819Z,38.05
2022-12-17T17:33:51.190Z,38.03
2022-12-17T17:36:20.800Z,34.10
2022-12-17T17:38:49.940Z,37.20
2022-12-17T17:41:20.344Z,35.55
2022-12-17T17:43:48.423Z,35.75
2022-12-17T17:46:17.797Z,36.03
2022-12-17T17:48:47.637Z,41.60
2022-12-17T17:51:23.259Z,36.17
2022-12-17T17:53:57.343Z,35.40
2022-12-17T17:56:29.391Z,40.35
2022-12-17T17:58:59.894Z,34.97
2022-12-17T18:01:29.762Z,40.13
2022-12-17T18:03:59.670Z,38.42
2022-12-17T18:06:27.748Z,37.60
2022-12-17T18:08:57.071Z,31.60
2022-12-17T18:11:28.570Z,39.05
2022-12-17T18:13:56.786Z,39.83
2022-12-17T18:16:26.487Z,41.70
2022-12-17T18:18:55.919Z,38.75
2022-12-17T18:21:23.794Z,42.67
2022-12-17T18:23:56.426Z,43.78
2022-12-17T18:26:25.872Z,53.67
2022-12-17T18:28:53.423Z,44.70
2022-12-17T18:31:23.244Z,44.53
2022-12-17T18:33:53.757Z,41.97
2022-12-17T18:36:23.287Z,43.65
2022-12-17T18:38:56.583Z,43.55
2022-12-17T18:41:43.979Z,40.63
2022-12-17T18:44:12.791Z,45.00
2022-12-17T18:46:40.474Z,44.13
2022-12-17T18:49:10.563Z,40.45
2022-12-17T18:51:39.785Z,47.05
2022-12-17T18:54:09.054Z,44.13
2022-12-17T18:57:00.596Z,45.25
2022-12-17T18:59:29.281Z,45.83
2022-12-17T19:01:57.568Z,48.15
2022-12-17T19:04:26.575Z,43.28
2022-12-17T19:06:55.074Z,36.67
2022-12-17T19:09:25.464Z,39.20
2022-12-17T19:11:55.600Z,39.85
2022-12-17T19:14:23.667Z,38.20
2022-12-17T19:16:52.126Z,39.67
2022-12-17T19:19:21.241Z,42.85
2022-12-17T19:21:49.652Z,39.47
2022-12-17T19:24:19.586Z,40.55
2022-12-17T19:26:47.130Z,40.70
2022-12-17T19:29:17.404Z,42.10
2022-12-17T19:31:45.640Z,45.72
2022-12-17T19:34:16.091Z,52.22
2022-12-17T19:36:44.237Z,45.45
2022-12-17T19:39:13.641Z,46.38
2022-12-17T19:41:41.381Z,37.83
2022-12-17T19:44:12.563Z,39.47
2022-12-17T19:46:42.256Z,40.80
2022-12-17T19:49:12.173Z,38.83
2022-12-17T19:51:42.994Z,40.63
2022-12-17T19:54:12.132Z,41.15
2022-12-17T19:56:39.775Z,42.75
2022-12-17T19:59:10.543Z,36.33
2022-12-17T20:01:42.695Z,35.80
2022-12-17T20:04:11.675Z,36.75
2022-12-17T20:06:39.203Z,40.22
2022-12-17T20:09:07.675Z,41.25
2022-12-17T20:11:36.066Z,38.80
2022-12-17T20:14:07.475Z,40.35
2022-12-17T20:16:36.708Z,34.40
2022-12-17T20:19:07.649Z,39.08
2022-12-17T20:21:35.655Z,41.20
2022-12-17T20:24:03.188Z,42.25
2022-12-17T20:26:30.922Z,40.08
2022-12-17T20:28:59.051Z,38.13
2022-12-17T20:31:26.899Z,35.80
2022-12-17T20:33:54.541Z,40.17
2022-12-17T20:36:24.392Z,42.53
2022-12-17T20:38:51.937Z,41.28
2022-12-17T20:41:21.327Z,40.15
2022-12-17T20:43:49.622Z,41.65
2022-12-17T20:46:18.925Z,40.05
2022-12-17T20:48:47.455Z,39.17
2022-12-17T20:51:17.808Z,38.80
2022-12-17T20:53:47.789Z,37.03
2022-12-17T20:56:17.374Z,38.17
2022-12-17T20:58:45.540Z,39.78
2022-12-17T21:01:15.632Z,41.35
2022-12-17T21:03:43.850Z,39.80
2022-12-17T21:06:13.516Z,40.72
2022-12-17T21:08:47.892Z,43.03
2022-12-17T21:11:19.695Z,40.67
2022-12-17T21:13:47.636Z,44.63
2022-12-17T21:16:18.050Z,40.40
2022-12-17T21:18:46.138Z,42.88
2022-12-17T21:21:20.656Z,44.63
2022-12-17T21:23:49.273Z,42.80
2022-12-17T21:26:19.820Z,43.05
2022-12-17T21:28:48.858Z,40.15
2022-12-17T21:31:18.787Z,44.80
2022-12-17T21:33:46.946Z,42.90
2022-12-17T21:36:15.687Z,46.77
2022-12-17T21:38:43.284Z,47.67
2022-12-17T21:41:12.599Z,46.78
2022-12-17T21:43:41.900Z,48.40
2022-12-17T21:46:12.107Z,47.83
2022-12-17T21:48:42.764Z,47.47
2022-12-17T21:51:13.037Z,48.85
2022-12-17T21:53:43.434Z,48.03
2022-12-17T21:56:14.008Z,51.33
2022-12-17T21:58:44.444Z,51.00
2022-12-17T22:01:18.219Z,53.70
2022-12-17T22:03:47.213Z,45.47
2022-12-17T22:06:20.816Z,49.90
2022-12-17T22:08:49.920Z,46.65
2022-12-17T22:11:21.696Z,47.17
2022-12-17T22:14:15.559Z,47.43
2022-12-17T22:16:49.876Z,49.30
2022-12-17T22:19:21.803Z,42.88
2022-12-17T22:21:57.432Z,51.92
2022-12-17T22:24:26.357Z,47.97
2022-12-17T22:27:00.008Z,47.53
2022-12-17T22:29:43.413Z,49.83
2022-12-17T22:32:28.996Z,55.97
2022-12-17T22:35:52.748Z,53.90
2022-12-17T22:42:12.070Z,49.03
2022-12-17T22:44:29.476Z,51.80
2022-12-17T22:44:40.758Z,51.10
2022-12-17T22:46:18.994Z,44.88
2022-12-17T22:48:46.986Z,46.83
2022-12-17T22:51:22.605Z,52.30
2022-12-17T22:54:02.611Z,50.75
2022-12-17T22:56:49.452Z,48.30
2022-12-17T22:59:19.327Z,47.15
2022-12-17T23:01:48.340Z,42.67
2022-12-17T23:04:17.268Z,46.47
2022-12-17T23:06:46.392Z,48.00
2022-12-17T23:09:14.890Z,44.83
2022-12-17T23:11:42.457Z,49.83
2022-12-17T23:14:10.026Z,44.47
2022-12-17T23:16:38.892Z,44.80
2022-12-17T23:19:08.876Z,47.50
2022-12-17T23:21:36.582Z,42.05
2022-12-17T23:24:04.949Z,47.90
2022-12-17T23:26:34.638Z,49.58
2022-12-17T23:29:05.630Z,45.60
2022-12-17T23:31:35.476Z,43.92
2022-12-17T23:34:03.309Z,42.13
2022-12-17T23:36:32.182Z,42.27
2022-12-17T23:39:00.571Z,37.88
2022-12-17T23:41:30.839Z,41.77
2022-12-17T23:44:00.197Z,47.77
2022-12-17T23:46:29.963Z,37.83
2022-12-17T23:48:57.905Z,42.93
2022-12-17T23:51:26.183Z,44.17
2022-12-17T23:53:55.102Z,46.77
2022-12-17T23:56:24.215Z,39.30
2022-12-17T23:58:54.002Z,42.40
